Pagrindinis puslapis
METAR-TAF:

METAR-TAF

Oro uostai :

Grazzanise, Italija

platuma: 41-03N, ilguma: 014-04E, Aukštis: 9 m

Dabartinis oras

Ataskaita buvo paskelbta 1 valandą ir 14 minutes, ne 16:55 UTC
Vėjas 3 kt iš Šiaurės Rytų
Temperatūra 18°C
Drėgmė 77%
Slėgis 1014 hPa
Matomumas 10 km arba daugiau
Išsisklaidę debesys ne aukštis 2000 ft

METAR: LIRM 301655Z 05003KT 9999 SCT020 18/14 Q1014 RMK SCT VIS MIN 9999 WIND THR06 01004KT BLU

Laikas: 20:09 (18:09 UTC)

Prognozė

Ataskaita buvo paskelbta 1 valandą ir 9 minutes, ne 17:00 UTC
Prognozė galioja nuo 30 metu 18 UTC su 31 metu 03 UTC
Vėjas 5 kt iš Šiaurės Vakarų
Matomumas 10 km arba daugiau
Mažai debesys ne aukštis 2500 ft
Išsisklaidę debesys ne aukštis 4000 ft
Tapsmas
nuo 30 metu 21 UTC su 30 metu 23 UTC
Vėjas 7 kt iš Šiaurės Rytų

TAF: LIRM 301700Z 3018/3103 32005KT 9999 FEW025 SCT040 BECMG 3021/3023 05007KT

Orai ataskaitas ir orų prognozės (METAR, TAF).

turimą stotys yra geltonos ir raudonos taškus žemėlapyje.

Perkelti pele per norėdami pamatyti stoties vardą.

Tada spustelėkite, norėdami matyti oro stebėjimo ir prognozės.

Norėdami pakeisti žemėlapį: spustelėkite ant žalios mygtukų su juodo kryžiaus žemyn,; žalią mygtuką su brūkšneliu, jei norite nutolinti; arba žalių rodyklių gretimoms žemėlapius.


METAR-TAF: